Flight Track Log - Related Links

Times and Time Zones

All times are in EST time to prevent confusion due to time zone crossing. See the N5167L flight status page for this flight to view local times or setup timezone preferences in your user account.


Time Position Orientation Groundspeed Altitude Reporting Facility
EST Latitude Longitude Course Direction KTS MPH feet Rate Location/Type
Sun 11:59:49 AM 34.5150 -93.1158 351° North 90 104 2,100  Level Memphis Center
Sun 12:00:51 PM 34.5392 -93.1133 North 83 96 2,700 532 Climbing Memphis Center
Sun 12:01:53 PM 34.5625 -93.1050 16° North 83 96 3,200 484 Climbing Memphis Center
Sun 12:02:55 PM 34.5936 -93.1017 North 87 100 3,700 439 Climbing Memphis Center
Sun 12:03:56 PM 34.6203 -93.1022 359° North 90 104 4,100 439 Climbing Memphis Center
Sun 12:04:00 PM 34.6355 -93.0904 351° North  Level FlightAware Approximate
Sun 12:04:58 PM 34.6464 -93.1028 359° North 91 105 4,600  Level Memphis Center
Sun 12:05:00 PM 34.6689 -93.0971 351° North  Level FlightAware Approximate
Sun 12:06:00 PM 34.6733 -93.0986 North 94 108 5,000  Level Memphis Center
Sun 12:07:02 PM 34.7011 -93.0994 359° North 95 109 5,500 387 Climbing Memphis Center
Sun 12:08:04 PM 34.7294 -93.1039 353° North 97 112 5,800 244 Climbing Memphis Center
Sun 12:09:05 PM 34.7603 -93.1039 360° North 104 120 6,000 146 Climbing Memphis Center
Sun 12:10:07 PM 34.8019 -93.1022 North 121 139 6,100 48 Climbing Memphis Center
Sun 12:11:09 PM 34.8339 -93.1086 351° North 121 139 6,100  Level Memphis Center
Sun 12:12:11 PM 34.8681 -93.1078 North 121 139 6,100  Level Memphis Center
Sun 12:13:13 PM 34.9006 -93.1094 358° North 120 138 6,100  Level Memphis Center
Sun 12:14:14 PM 34.9344 -93.1108 358° North 120 138 6,100  Level Memphis Center
Sun 12:15:16 PM 34.9683 -93.1125 358° North 120 138 6,100  Level Memphis Center
Sun 12:16:18 PM 35.0025 -93.1147 357° North 120 138 6,100  Level Memphis Center
Sun 12:17:20 PM 35.0436 -93.1144 360° North 120 138 6,100  Level Memphis Center
Sun 12:18:22 PM 35.0781 -93.1136 North 121 139 6,100  Level Memphis Center
Sun 12:19:23 PM 35.1131 -93.1167 356° North 121 139 6,100  Level Memphis Center
Sun 12:20:25 PM 35.1481 -93.1197 356° North 121 139 6,100  Level Memphis Center
Sun 12:21:27 PM 35.1839 -93.1200 360° North 125 144 6,100  Level Memphis Center
Sun 12:22:29 PM 35.2175 -93.1206 359° North 125 144 6,100  Level Memphis Center
Sun 12:23:30 PM 35.2506 -93.1244 355° North 124 143 6,100 -49 Level Memphis Center
Sun 12:24:32 PM 35.2925 -93.1236 North 124 143 6,000 -48 Descending Memphis Center
Sun 12:25:34 PM 35.3269 -93.1247 358° North 124 143 6,000 48 Level Memphis Center
Sun 12:26:36 PM 35.3597 -93.1297 353° North 124 143 6,100  Climbing Memphis Center
Sun 12:27:37 PM 35.3911 -93.1353 352° North 118 136 6,000 49 Descending Memphis Center
Sun 12:28:39 PM 35.4247 -93.1361 359° North 119 137 6,200 48 Climbing Memphis Center
Sun 12:29:41 PM 35.4603 -93.1372 359° North 121 139 6,100 -97 Descending Memphis Center
Sun 12:30:43 PM 35.4956 -93.1417 354° North 123 142 6,000 -48 Descending Memphis Center
Sun 12:31:45 PM 35.5308 -93.1411 North 123 142 6,000  Level Memphis Center
Sun 12:32:46 PM 35.5728 -93.1414 360° North 123 142 6,000  Level Memphis Center
Sun 12:33:48 PM 35.6047 -93.1400 North 123 142 6,000 48 Level Memphis Center
Sun 12:34:50 PM 35.6397 -93.1372 North 123 142 6,100 48 Climbing Memphis Center
Sun 12:35:52 PM 35.6744 -93.1386 358° North 123 142 6,100  Level Memphis Center
Sun 12:36:54 PM 35.7103 -93.1386 360° North 124 143 6,100  Level Memphis Center
Sun 12:37:55 PM 35.7453 -93.1411 357° North 124 143 6,100 -49 Level Memphis Center
Sun 12:38:57 PM 35.7797 -93.1428 358° North 124 143 6,000 -242 Descending Memphis Center
Sun 12:39:59 PM 35.8233 -93.1447 358° North 125 144 5,600 -387 Descending Memphis Center
Sun 12:41:01 PM 35.8578 -93.1464 358° North 125 144 5,200 -194 Descending Memphis Center
Sun 12:43:05 PM 35.9217 -93.1486 358° North 118 136 5,000 -65 Descending Memphis Center
Sun 12:44:07 PM 35.9528 -93.1500 358° North 117 135 5,000  Level Memphis Center
Sun 12:45:08 PM 35.9828 -93.1522 357° North 113 130 5,000  Level Memphis Center
Sun 12:46:10 PM 36.0128 -93.1517 North 111 128 5,000  Level Memphis Center
Sun 12:47:12 PM 36.0489 -93.1522 359° North 111 128 5,000  Level Memphis Center
Sun 12:48:14 PM 36.0783 -93.1531 359° North 110 127 5,000  Level Memphis Center
Sun 12:49:16 PM 36.1081 -93.1558 356° North 110 127 5,000 -290 Level Memphis Center
Sun 12:50:18 PM 36.1369 -93.1592 355° North 107 123 4,400 -339 Descending Memphis Center
Sun 12:51:20 PM 36.1669 -93.1625 355° North 107 123 4,300 -97 Descending Memphis Center
Sun 12:53:00 PM 36.2207 -93.1500 North  Level FlightAware Approximate

Login

Don't have an account? Register now (free) for customized features, flight alerts, and more!